Time;durP1;ratioP1;P1;durP2;ratioP2;P2;SDS_P1;SDS_P2;PMS_P1;PMS_P2;Temp;Humidity;BMP_temperature;BMP_pressure;BME280_temperature;BME280_humidity;BME280_pressure;Samples;Min_cycle;Max_cycle;Signal;HPM_P1;HPM_P2
2022/04/27 00:00:08;;;;;;;3.67;2.50;;;;;;;;;;2106939;28;20051;-61
2022/04/27 00:01:09;;;;;;;;;;;;;;;;;;2107376;28;20115;-62
2022/04/27 00:02:11;;;;;;;2.90;2.20;;;;;;;;;;2106879;28;20053;-63
2022/04/27 00:03:12;;;;;;;3.10;2.30;;;;;;;;;;2107023;28;20287;-63
2022/04/27 00:04:13;;;;;;;3.45;2.45;;;;;;;;;;2106934;28;20135;-63
2022/04/27 00:05:14;;;;;;;3.92;2.30;;;;;;;;;;2106941;28;20101;-63
2022/04/27 00:06:15;;;;;;;2.93;1.90;;;;;;;;;;2107028;28;20047;-63
2022/04/27 00:07:17;;;;;;;5.13;2.38;;;;;;;;;;2106880;28;20130;-62
2022/04/27 00:08:18;;;;;;;3.80;2.33;;;;;;;;;;2106944;28;20071;-62
2022/04/27 00:09:19;;;;;;;2.83;2.17;;;;;;;;;;2106741;28;20044;-63
2022/04/27 00:10:20;;;;;;;4.57;2.50;;;;;;;;;;2106855;28;20157;-63
2022/04/27 00:11:22;;;;;;;3.97;2.80;;;;;;;;;;2106876;28;20483;-62
2022/04/27 00:12:23;;;;;;;;;;;;;;;;;;2107208;28;20079;-63
2022/04/27 00:13:24;;;;;;;3.65;2.50;;;;;;;;;;2106997;28;19974;-64
2022/04/27 00:14:25;;;;;;;4.60;2.50;;;;;;;;;;2106736;28;20072;-64
2022/04/27 00:15:28;;;;;;;3.28;2.10;;;;;;;;;;2106983;28;20075;-64
2022/04/27 00:16:29;;;;;;;3.75;2.45;;;;;;;;;;2106767;28;20142;-64
2022/04/27 00:17:30;;;;;;;3.33;2.58;;;;;;;;;;2106827;28;20051;-64
2022/04/27 00:18:31;;;;;;;2.08;1.52;;;;;;;;;;2104895;28;20079;-64
2022/04/27 00:19:32;;;;;;;4.25;2.15;;;;;;;;;;2098593;28;20079;-64
2022/04/27 00:20:33;;;;;;;3.42;2.38;;;;;;;;;;2098481;28;20123;-64
2022/04/27 00:21:35;;;;;;;3.63;2.20;;;;;;;;;;2098552;28;20045;-65
2022/04/27 00:22:36;;;;;;;3.28;2.20;;;;;;;;;;2098382;28;20124;-66
2022/04/27 00:23:37;;;;;;;5.28;2.42;;;;;;;;;;2098376;28;20127;-68
2022/04/27 00:24:39;;;;;;;3.58;2.55;;;;;;;;;;2098540;28;20124;-65
2022/04/27 00:25:40;;;;;;;3.33;2.30;;;;;;;;;;2098433;28;20120;-64
2022/04/27 00:26:42;;;;;;;3.47;2.30;;;;;;;;;;2098530;28;20472;-65
2022/04/27 00:27:43;;;;;;;5.00;2.50;;;;;;;;;;2098319;28;20136;-64
2022/04/27 00:28:45;;;;;;;4.37;3.13;;;;;;;;;;2098512;28;20405;-63
2022/04/27 00:29:45;;;;;;;4.82;2.60;;;;;;;;;;2098694;28;20048;-64
2022/04/27 00:30:47;;;;;;;3.33;2.23;;;;;;;;;;2106821;28;20040;-64
2022/04/27 00:31:48;;;;;;;3.90;1.92;;;;;;;;;;2106753;28;20181;-61
2022/04/27 00:32:49;;;;;;;3.72;2.45;;;;;;;;;;2106926;28;20173;-62
2022/04/27 00:33:50;;;;;;;4.10;2.63;;;;;;;;;;2106580;28;20075;-62
2022/04/27 00:34:52;;;;;;;3.22;2.35;;;;;;;;;;2106672;28;20122;-62
2022/04/27 00:35:53;;;;;;;4.60;2.40;;;;;;;;;;2106803;28;20112;-62
2022/04/27 00:36:54;;;;;;;2.95;2.30;;;;;;;;;;2106692;28;20493;-62
2022/04/27 00:37:55;;;;;;;2.83;2.35;;;;;;;;;;2106411;28;20127;-62
2022/04/27 00:38:56;;;;;;;4.23;2.80;;;;;;;;;;2106625;28;20102;-62
2022/04/27 00:39:57;;;;;;;4.10;2.63;;;;;;;;;;2106783;28;20071;-62
2022/04/27 00:40:58;;;;;;;5.93;2.92;;;;;;;;;;2106703;28;20056;-62
2022/04/27 00:42:11;;;;;;;3.85;2.47;;;;;;;;;;2106825;28;20162;-62
2022/04/27 00:43:12;;;;;;;;;;;;;;;;;;2107100;28;20564;-62
2022/04/27 00:44:12;;;;;;;4.80;2.90;;;;;;;;;;2106538;28;20438;-61
2022/04/27 00:45:14;;;;;;;5.07;3.20;;;;;;;;;;2106792;28;20063;-61
2022/04/27 00:46:15;;;;;;;4.15;2.63;;;;;;;;;;2106746;28;20127;-62
2022/04/27 00:47:17;;;;;;;4.53;3.00;;;;;;;;;;2106641;28;20082;-61
2022/04/27 00:48:18;;;;;;;4.13;2.85;;;;;;;;;;2106558;28;20556;-61
2022/04/27 00:49:19;;;;;;;5.07;2.90;;;;;;;;;;2106689;28;20044;-62
2022/04/27 00:50:20;;;;;;;4.53;3.00;;;;;;;;;;2106553;28;20404;-61
2022/04/27 00:51:22;;;;;;;7.87;4.00;;;;;;;;;;2106649;28;20583;-61
2022/04/27 00:52:24;;;;;;;5.38;3.13;;;;;;;;;;2106572;28;20295;-61
2022/04/27 00:53:25;;;;;;;5.90;3.28;;;;;;;;;;2106718;28;20385;-61
2022/04/27 00:54:26;;;;;;;5.65;3.55;;;;;;;;;;2106483;28;20048;-45
2022/04/27 00:55:29;;;;;;;5.80;3.92;;;;;;;;;;2106790;28;20046;-45
2022/04/27 00:56:31;;;;;;;6.63;3.60;;;;;;;;;;2106440;28;20572;-45
2022/04/27 00:57:33;;;;;;;4.80;3.50;;;;;;;;;;2106598;28;20488;-45
2022/04/27 00:58:34;;;;;;;3.78;3.17;;;;;;;;;;2106589;28;20054;-45
2022/04/27 00:59:52;;;;;;;5.85;3.50;;;;;;;;;;2106670;28;20039;-45
2022/04/27 01:00:54;;;;;;;5.47;3.13;;;;;;;;;;2106724;28;20045;-44
2022/04/27 01:01:55;;;;;;;5.25;3.15;;;;;;;;;;2106467;28;20040;-45
2022/04/27 01:02:56;;;;;;;4.15;2.88;;;;;;;;;;2106769;28;20397;-62
2022/04/27 01:03:57;;;;;;;6.15;3.30;;;;;;;;;;2106583;28;20148;-61
2022/04/27 01:04:58;;;;;;;6.95;4.18;;;;;;;;;;2106643;28;20050;-61
2022/04/27 01:06:02;;;;;;;6.00;3.33;;;;;;;;;;2106528;28;20096;-61
2022/04/27 01:07:03;;;;;;;4.25;3.20;;;;;;;;;;2106557;28;20139;-63
2022/04/27 01:08:04;;;;;;;4.93;2.80;;;;;;;;;;2106576;28;20086;-61
2022/04/27 01:09:06;;;;;;;5.72;3.13;;;;;;;;;;2106437;28;20489;-62
2022/04/27 01:10:08;;;;;;;4.65;3.17;;;;;;;;;;2106459;28;20066;-62
2022/04/27 01:11:09;;;;;;;5.32;3.15;;;;;;;;;;2106584;28;20051;-62
2022/04/27 01:12:11;;;;;;;4.63;3.20;;;;;;;;;;2106650;28;20438;-62
2022/04/27 01:13:12;;;;;;;6.60;3.83;;;;;;;;;;2106445;28;20378;-62
2022/04/27 01:14:13;;;;;;;4.97;3.08;;;;;;;;;;2106539;28;20131;-62
2022/04/27 01:15:29;;;;;;;5.50;3.58;;;;;;;;;;2106446;28;20040;-62
2022/04/27 01:16:30;;;;;;;4.72;3.03;;;;;;;;;;2106604;28;20044;-62
2022/04/27 01:17:31;;;;;;;4.75;3.53;;;;;;;;;;2106440;28;20138;-62
2022/04/27 01:18:32;;;;;;;4.57;3.33;;;;;;;;;;2104314;28;20043;-61
2022/04/27 01:19:33;;;;;;;5.03;3.35;;;;;;;;;;2097949;28;20548;-61
2022/04/27 01:20:36;;;;;;;6.30;3.90;;;;;;;;;;2098168;28;20319;-62
2022/04/27 01:21:37;;;;;;;6.82;3.60;;;;;;;;;;2097994;28;20056;-61
2022/04/27 01:22:38;;;;;;;6.43;3.83;;;;;;;;;;2098167;28;20045;-62
2022/04/27 01:23:39;;;;;;;6.35;3.83;;;;;;;;;;2098061;28;20071;-62
2022/04/27 01:24:40;;;;;;;4.83;3.20;;;;;;;;;;2097974;28;20482;-61
2022/04/27 01:25:52;;;;;;;5.50;3.60;;;;;;;;;;2098171;28;20121;-62
2022/04/27 01:26:53;;;;;;;4.57;3.33;;;;;;;;;;2105721;28;20052;-62
2022/04/27 01:27:55;;;;;;;4.78;3.22;;;;;;;;;;2106277;28;20430;-61
2022/04/27 01:28:56;;;;;;;6.40;4.10;;;;;;;;;;2106248;28;20052;-61
2022/04/27 01:29:57;;;;;;;5.88;3.30;;;;;;;;;;2106341;28;20062;-62
2022/04/27 01:31:00;;;;;;;5.45;3.53;;;;;;;;;;2106708;28;20044;-45
2022/04/27 01:32:01;;;;;;;5.28;3.08;;;;;;;;;;2106328;28;20382;-44
2022/04/27 01:33:07;;;;;;;5.25;4.00;;;;;;;;;;2106283;28;20048;-45
2022/04/27 01:34:08;;;;;;;7.20;3.38;;;;;;;;;;2106250;28;20608;-45
2022/04/27 01:35:09;;;;;;;4.82;3.10;;;;;;;;;;2106363;28;20116;-44
2022/04/27 01:36:13;;;;;;;4.77;3.30;;;;;;;;;;2106356;28;20551;-43
2022/04/27 01:38:33;;;;;;;5.50;2.83;;;;;;;;;;2106207;28;20605;-42
2022/04/27 01:39:35;;;;;;;3.97;2.97;;;;;;;;;;2106319;28;20127;-44
2022/04/27 01:40:37;;;;;;;4.38;2.83;;;;;;;;;;2106509;28;20054;-43
2022/04/27 01:41:38;;;;;;;5.32;3.30;;;;;;;;;;2106315;28;20291;-42
2022/04/27 01:42:39;;;;;;;4.55;2.50;;;;;;;;;;2106402;28;20139;-44
2022/04/27 01:43:40;;;;;;;6.15;3.42;;;;;;;;;;2106216;28;20501;-44
2022/04/27 01:44:41;;;;;;;4.65;2.72;;;;;;;;;;2106226;28;20044;-43
2022/04/27 01:45:42;;;;;;;4.78;2.92;;;;;;;;;;2106391;28;20055;-44
2022/04/27 01:46:43;;;;;;;4.72;3.08;;;;;;;;;;2106243;28;20044;-44
2022/04/27 01:47:45;;;;;;;5.70;3.10;;;;;;;;;;2106290;28;20055;-43
2022/04/27 01:48:46;;;;;;;4.63;3.10;;;;;;;;;;2106141;28;20481;-44
2022/04/27 01:49:47;;;;;;;3.67;2.70;;;;;;;;;;2105375;28;20048;-44
2022/04/27 01:50:48;;;;;;;5.45;3.50;;;;;;;;;;2106235;28;20123;-44
2022/04/27 01:54:43;;;;;;;5.47;3.35;;;;;;;;;;2080280;28;20596;-45
2022/04/27 01:55:45;;;;;;;;;;;;;;;;;;2080702;28;20045;-43
2022/04/27 01:56:47;;;;;;;5.97;3.47;;;;;;;;;;2080223;28;19925;-45
2022/04/27 01:57:48;;;;;;;5.65;3.38;;;;;;;;;;2080263;28;20410;-45
2022/04/27 01:58:49;;;;;;;5.65;3.55;;;;;;;;;;2080276;28;20128;-45
2022/04/27 01:59:50;;;;;;;4.67;2.90;;;;;;;;;;2080338;28;20144;-43
2022/04/27 02:00:51;;;;;;;6.90;3.63;;;;;;;;;;2095765;28;20543;-44
2022/04/27 02:01:53;;;;;;;6.50;3.33;;;;;;;;;;2097805;28;20125;-45
2022/04/27 02:02:55;;;;;;;;;;;;;;;;;;2098323;28;20045;-42
2022/04/27 02:03:56;;;;;;;7.65;3.55;;;;;;;;;;2097657;28;19924;-42
2022/04/27 02:04:57;;;;;;;6.60;3.42;;;;;;;;;;2097696;28;20150;-43
2022/04/27 02:05:59;;;;;;;6.60;3.83;;;;;;;;;;2097908;28;20101;-44
2022/04/27 02:07:00;;;;;;;8.82;3.70;;;;;;;;;;2097724;28;20143;-43
2022/04/27 02:08:02;;;;;;;7.10;3.75;;;;;;;;;;2097615;28;20045;-44
2022/04/27 02:09:03;;;;;;;6.05;3.42;;;;;;;;;;2097607;28;20537;-43
2022/04/27 02:10:05;;;;;;;6.35;3.63;;;;;;;;;;2097837;28;20074;-44
2022/04/27 02:11:06;;;;;;;6.07;3.53;;;;;;;;;;2097753;28;20044;-44
2022/04/27 02:12:08;;;;;;;7.27;4.00;;;;;;;;;;2097827;28;20053;-45
2022/04/27 02:13:09;;;;;;;8.23;3.20;;;;;;;;;;2097751;28;20162;-45
2022/04/27 02:14:10;;;;;;;6.38;3.80;;;;;;;;;;2097855;28;20501;-45
2022/04/27 02:15:11;;;;;;;7.72;4.18;;;;;;;;;;2097639;28;20045;-44
2022/04/27 02:16:12;;;;;;;7.67;3.97;;;;;;;;;;2097668;28;20055;-45
2022/04/27 02:17:13;;;;;;;8.45;3.72;;;;;;;;;;2097763;28;20064;-44
2022/04/27 02:18:16;;;;;;;8.27;3.45;;;;;;;;;;2097690;28;20128;-43
2022/04/27 02:19:17;;;;;;;5.97;3.63;;;;;;;;;;2089445;28;20045;-44
2022/04/27 02:20:18;;;;;;;5.40;3.47;;;;;;;;;;2089287;28;20100;-45
2022/04/27 02:21:20;;;;;;;5.38;2.95;;;;;;;;;;2089529;28;20136;-44
2022/04/27 02:22:22;;;;;;;6.03;3.40;;;;;;;;;;2091653;28;20057;-44
2022/04/27 02:23:23;;;;;;;7.38;3.97;;;;;;;;;;2106147;28;20070;-44
2022/04/27 02:24:25;;;;;;;6.93;3.28;;;;;;;;;;2105939;28;20139;-45
2022/04/27 02:25:26;;;;;;;6.13;3.55;;;;;;;;;;2105921;28;20492;-44
2022/04/27 02:26:27;;;;;;;5.57;3.33;;;;;;;;;;2106086;28;20048;-44
2022/04/27 02:27:28;;;;;;;5.10;3.30;;;;;;;;;;2105863;28;20050;-44
2022/04/27 02:28:29;;;;;;;5.47;3.40;;;;;;;;;;2105981;28;20494;-45
2022/04/27 02:29:30;;;;;;;4.28;2.85;;;;;;;;;;2105930;28;20383;-44
2022/04/27 02:30:32;;;;;;;4.93;2.83;;;;;;;;;;2105953;28;20138;-44
2022/04/27 02:31:33;;;;;;;5.25;3.17;;;;;;;;;;2105997;28;20134;-44
2022/04/27 02:32:34;;;;;;;8.20;2.90;;;;;;;;;;2105937;28;20413;-44
2022/04/27 02:33:35;;;;;;;5.13;3.63;;;;;;;;;;2106030;28;20051;-44
2022/04/27 02:34:36;;;;;;;5.77;3.10;;;;;;;;;;2106000;28;20059;-44
2022/04/27 02:35:38;;;;;;;4.28;2.72;;;;;;;;;;2106010;28;20085;-44
2022/04/27 02:36:39;;;;;;;4.07;3.10;;;;;;;;;;2106116;28;20106;-44
2022/04/27 02:37:41;;;;;;;3.40;2.77;;;;;;;;;;2106067;28;20125;-44
2022/04/27 02:38:42;;;;;;;;;;;;;;;;;;2106483;28;20165;-44
2022/04/27 02:39:44;;;;;;;4.47;2.90;;;;;;;;;;2105898;28;19924;-43
2022/04/27 02:40:45;;;;;;;4.82;2.72;;;;;;;;;;2105887;28;20519;-44
2022/04/27 02:41:46;;;;;;;5.28;3.53;;;;;;;;;;2105957;28;20127;-44
2022/04/27 02:42:47;;;;;;;3.92;2.75;;;;;;;;;;2105850;28;20052;-43
2022/04/27 02:43:49;;;;;;;5.25;3.17;;;;;;;;;;2105893;28;20052;-44
2022/04/27 02:44:50;;;;;;;3.67;2.50;;;;;;;;;;2105829;28;20474;-44
2022/04/27 02:45:51;;;;;;;3.95;2.67;;;;;;;;;;2105957;28;20047;-44
2022/04/27 02:46:52;;;;;;;5.18;3.00;;;;;;;;;;2105798;28;20571;-44
2022/04/27 02:47:53;;;;;;;4.40;2.65;;;;;;;;;;2105902;28;20058;-44
2022/04/27 02:52:49;;;;;;;4.18;3.00;;;;;;;;;;2105953;28;20384;-44
2022/04/27 02:53:50;;;;;;;4.18;2.75;;;;;;;;;;2105772;28;20040;-44
2022/04/27 02:54:52;;;;;;;5.28;3.00;;;;;;;;;;2105908;28;20070;-44
2022/04/27 02:55:53;;;;;;;4.63;2.70;;;;;;;;;;2105735;28;20382;-44
2022/04/27 02:56:54;;;;;;;4.18;2.92;;;;;;;;;;2105865;28;20081;-43
2022/04/27 02:57:55;;;;;;;4.95;3.30;;;;;;;;;;2105956;28;20199;-44
2022/04/27 02:58:58;;;;;;;4.95;2.90;;;;;;;;;;2105661;28;20491;-44
2022/04/27 02:59:59;;;;;;;4.70;2.97;;;;;;;;;;2105773;28;20044;-44
2022/04/27 03:01:00;;;;;;;5.68;3.20;;;;;;;;;;2105579;28;20719;-44
2022/04/27 03:02:01;;;;;;;4.80;3.20;;;;;;;;;;2105913;28;20048;-44
2022/04/27 03:03:02;;;;;;;5.70;2.80;;;;;;;;;;2106018;28;20121;-43
2022/04/27 03:04:04;;;;;;;4.72;2.80;;;;;;;;;;2105945;28;20048;-44
2022/04/27 03:05:05;;;;;;;5.28;2.92;;;;;;;;;;2105833;28;20047;-44
2022/04/27 03:06:07;;;;;;;4.43;3.00;;;;;;;;;;2105917;28;20055;-44
2022/04/27 03:07:08;;;;;;;5.05;3.08;;;;;;;;;;2105789;28;20051;-43
2022/04/27 03:08:11;;;;;;;5.75;3.13;;;;;;;;;;2105706;28;20131;-44
2022/04/27 03:09:12;;;;;;;4.82;3.05;;;;;;;;;;2105829;28;20622;-63
2022/04/27 03:10:13;;;;;;;6.23;2.87;;;;;;;;;;2105673;28;20125;-62
2022/04/27 03:11:14;;;;;;;5.07;2.35;;;;;;;;;;2105238;28;20108;-61
2022/04/27 03:12:15;;;;;;;5.10;2.95;;;;;;;;;;2097403;28;20556;-64
2022/04/27 03:13:16;;;;;;;4.70;2.72;;;;;;;;;;2097469;28;20044;-62
2022/04/27 03:14:17;;;;;;;6.10;2.78;;;;;;;;;;2097320;28;20101;-61
2022/04/27 03:15:18;;;;;;;4.60;2.95;;;;;;;;;;2097342;28;20044;-63
2022/04/27 03:16:19;;;;;;;3.60;2.92;;;;;;;;;;2097359;28;20048;-62
2022/04/27 03:17:20;;;;;;;5.35;2.90;;;;;;;;;;2097281;28;20060;-61
2022/04/27 03:18:21;;;;;;;4.25;2.45;;;;;;;;;;2096781;28;20403;-64
2022/04/27 03:19:23;;;;;;;4.33;3.10;;;;;;;;;;2104183;28;20128;-62
2022/04/27 03:20:24;;;;;;;5.07;2.95;;;;;;;;;;2105766;28;20051;-62
2022/04/27 03:21:26;;;;;;;5.30;3.47;;;;;;;;;;2105682;28;20390;-64
2022/04/27 03:22:27;;;;;;;7.20;3.65;;;;;;;;;;2105594;28;20075;-62
2022/04/27 03:23:29;;;;;;;4.40;2.67;;;;;;;;;;2105615;28;20044;-61
2022/04/27 03:24:30;;;;;;;4.30;2.85;;;;;;;;;;2105758;28;20315;-64
2022/04/27 03:25:33;;;;;;;3.95;2.65;;;;;;;;;;2105620;28;20048;-63
2022/04/27 03:26:33;;;;;;;4.82;3.30;;;;;;;;;;2105710;28;20051;-62
2022/04/27 03:27:35;;;;;;;5.07;3.10;;;;;;;;;;2105620;28;20485;-63
2022/04/27 03:28:36;;;;;;;4.50;3.03;;;;;;;;;;2105560;28;20173;-63
2022/04/27 03:29:37;;;;;;;3.30;2.10;;;;;;;;;;2105709;28;20052;-62
2022/04/27 03:30:38;;;;;;;4.28;2.95;;;;;;;;;;2105761;28;20040;-63
2022/04/27 03:31:39;;;;;;;5.95;3.05;;;;;;;;;;2105573;28;20044;-63
2022/04/27 03:32:40;;;;;;;5.20;3.03;;;;;;;;;;2105581;28;20044;-63
2022/04/27 03:33:41;;;;;;;4.33;3.10;;;;;;;;;;2105708;28;20542;-62
2022/04/27 03:34:42;;;;;;;4.45;2.95;;;;;;;;;;2105644;28;20132;-64
2022/04/27 03:35:43;;;;;;;5.70;2.78;;;;;;;;;;2105777;28;20051;-63
2022/04/27 03:36:44;;;;;;;4.35;2.67;;;;;;;;;;2105708;28;20050;-62
2022/04/27 03:37:45;;;;;;;5.07;2.83;;;;;;;;;;2105594;28;20194;-62
2022/04/27 03:38:48;;;;;;;5.72;3.28;;;;;;;;;;2105524;28;20048;-62
2022/04/27 03:39:49;;;;;;;3.95;2.65;;;;;;;;;;2105734;28;20135;-62
2022/04/27 03:40:51;;;;;;;4.30;2.70;;;;;;;;;;2105788;28;20123;-62
2022/04/27 03:41:52;;;;;;;5.20;2.83;;;;;;;;;;2105698;28;20376;-62
2022/04/27 03:42:53;;;;;;;4.90;3.05;;;;;;;;;;2105725;28;20050;-62
2022/04/27 03:43:54;;;;;;;5.15;3.10;;;;;;;;;;2105683;28;20408;-44
2022/04/27 03:44:55;;;;;;;4.18;2.92;;;;;;;;;;2105653;28;20049;-44
2022/04/27 03:45:56;;;;;;;4.60;2.67;;;;;;;;;;2105498;28;20056;-44
2022/04/27 03:46:58;;;;;;;5.35;2.90;;;;;;;;;;2105632;28;20052;-44
2022/04/27 03:47:59;;;;;;;4.35;2.78;;;;;;;;;;2105518;28;20055;-44
2022/04/27 03:49:00;;;;;;;4.15;2.80;;;;;;;;;;2105535;28;20047;-44
2022/04/27 03:50:04;;;;;;;4.53;2.95;;;;;;;;;;2105556;28;20085;-44
2022/04/27 03:51:05;;;;;;;5.43;3.40;;;;;;;;;;2105632;28;20059;-44
2022/04/27 03:52:07;;;;;;;4.35;2.88;;;;;;;;;;2105526;28;20489;-44
2022/04/27 03:53:08;;;;;;;5.13;3.42;;;;;;;;;;2105626;28;20044;-44
2022/04/27 03:54:10;;;;;;;5.72;3.05;;;;;;;;;;2105543;28;20100;-44
2022/04/27 03:55:11;;;;;;;4.93;3.20;;;;;;;;;;2105428;28;20040;-44
2022/04/27 03:56:12;;;;;;;3.38;2.50;;;;;;;;;;2105487;28;20084;-44
2022/04/27 03:57:13;;;;;;;4.28;2.90;;;;;;;;;;2105489;28;20405;-43
2022/04/27 03:58:14;;;;;;;4.20;3.00;;;;;;;;;;2105579;28;20127;-44
2022/04/27 03:59:16;;;;;;;3.37;2.20;;;;;;;;;;2105496;28;20052;-43
2022/04/27 04:00:16;;;;;;;4.50;3.15;;;;;;;;;;2105604;28;20177;-43
2022/04/27 04:01:18;;;;;;;5.65;3.00;;;;;;;;;;2105516;28;20428;-44
2022/04/27 04:02:19;;;;;;;4.32;2.63;;;;;;;;;;2105780;28;20474;-62
2022/04/27 04:03:20;;;;;;;4.30;2.60;;;;;;;;;;2105525;28;20048;-62
2022/04/27 04:04:24;;;;;;;5.10;3.33;;;;;;;;;;2105311;28;20490;-62
2022/04/27 04:05:26;;;;;;;3.50;2.53;;;;;;;;;;2105562;28;20150;-62
2022/04/27 04:06:27;;;;;;;4.85;2.78;;;;;;;;;;2105348;28;20052;-62
2022/04/27 04:07:28;;;;;;;4.68;2.90;;;;;;;;;;2104812;28;20489;-61
2022/04/27 04:08:29;;;;;;;4.13;2.40;;;;;;;;;;2097007;28;20048;-61
2022/04/27 04:09:31;;;;;;;4.80;3.15;;;;;;;;;;2097225;28;20127;-62
2022/04/27 04:10:32;;;;;;;4.50;2.70;;;;;;;;;;2097047;28;20127;-62
2022/04/27 04:11:33;;;;;;;4.28;3.10;;;;;;;;;;2097184;28;20132;-62
2022/04/27 04:12:34;;;;;;;4.63;2.93;;;;;;;;;;2097029;28;20052;-62
2022/04/27 04:13:35;;;;;;;4.38;2.90;;;;;;;;;;2098472;28;20048;-61
2022/04/27 04:14:36;;;;;;;4.65;2.80;;;;;;;;;;2098597;28;20405;-61
2022/04/27 04:15:38;;;;;;;4.70;2.83;;;;;;;;;;2098372;28;20046;-62
2022/04/27 04:16:39;;;;;;;4.10;2.40;;;;;;;;;;2098569;28;20064;-62
2022/04/27 04:17:44;;;;;;;6.38;2.90;;;;;;;;;;2098447;28;20123;-62
2022/04/27 04:18:46;;;;;;;4.65;2.90;;;;;;;;;;2098210;28;20440;-61
2022/04/27 04:19:46;;;;;;;4.43;2.90;;;;;;;;;;2098440;28;20044;-61
2022/04/27 04:20:48;;;;;;;4.70;2.95;;;;;;;;;;2098548;28;20068;-61
2022/04/27 04:21:49;;;;;;;3.83;2.97;;;;;;;;;;2098398;28;20561;-61
2022/04/27 04:22:50;;;;;;;4.83;2.90;;;;;;;;;;2098539;28;20036;-62
2022/04/27 04:23:51;;;;;;;4.72;3.03;;;;;;;;;;2098312;28;20478;-62
2022/04/27 04:28:51;;;;;;;4.70;2.85;;;;;;;;;;2098289;28;20048;-61
2022/04/27 04:29:52;;;;;;;4.72;3.20;;;;;;;;;;2098546;28;20160;-61
2022/04/27 04:30:53;;;;;;;4.27;3.00;;;;;;;;;;2098415;28;20134;-61
2022/04/27 04:31:54;;;;;;;5.85;3.35;;;;;;;;;;2098340;28;20090;-62
2022/04/27 04:32:56;;;;;;;5.23;3.03;;;;;;;;;;2098763;28;20094;-44
2022/04/27 04:33:56;;;;;;;5.20;2.75;;;;;;;;;;2098428;28;20135;-44
2022/04/27 04:34:58;;;;;;;4.53;2.78;;;;;;;;;;2098461;28;20056;-44
2022/04/27 04:35:59;;;;;;;4.20;2.80;;;;;;;;;;2098424;28;20131;-44
2022/04/27 04:37:01;;;;;;;4.00;2.33;;;;;;;;;;2098495;28;20218;-44
2022/04/27 04:38:04;;;;;;;4.80;2.38;;;;;;;;;;2098286;28;20565;-44
2022/04/27 04:39:05;;;;;;;4.25;2.63;;;;;;;;;;2098281;28;20131;-44
2022/04/27 04:40:08;;;;;;;4.10;2.85;;;;;;;;;;2098493;28;20123;-44
2022/04/27 04:41:08;;;;;;;3.80;2.60;;;;;;;;;;2098434;28;20052;-44
2022/04/27 04:42:10;;;;;;;5.20;2.70;;;;;;;;;;2098319;28;20127;-43
2022/04/27 04:43:10;;;;;;;4.70;2.92;;;;;;;;;;2098436;28;20105;-44
2022/04/27 04:44:12;;;;;;;5.53;3.50;;;;;;;;;;2098161;28;20580;-44
2022/04/27 04:45:13;;;;;;;4.05;2.95;;;;;;;;;;2098412;28;20059;-44
2022/04/27 04:46:14;;;;;;;5.22;3.15;;;;;;;;;;2098395;28;20060;-44
2022/04/27 04:47:15;;;;;;;2.97;2.45;;;;;;;;;;2098393;28;20049;-44
2022/04/27 04:48:16;;;;;;;4.40;2.60;;;;;;;;;;2098372;28;20052;-44
2022/04/27 04:49:17;;;;;;;5.25;2.40;;;;;;;;;;2098129;28;20543;-44
2022/04/27 04:50:18;;;;;;;4.17;2.47;;;;;;;;;;2098347;28;20049;-44
2022/04/27 04:51:19;;;;;;;4.55;2.78;;;;;;;;;;2098168;28;20372;-44
2022/04/27 04:52:36;;;;;;;5.10;3.00;;;;;;;;;;2098387;28;20047;-44
2022/04/27 04:53:37;;;;;;;4.70;3.10;;;;;;;;;;2098122;28;20075;-44
2022/04/27 04:54:38;;;;;;;4.10;2.67;;;;;;;;;;2098346;28;20045;-44
2022/04/27 04:55:40;;;;;;;4.57;2.53;;;;;;;;;;2098250;28;20037;-44
2022/04/27 04:56:41;;;;;;;4.57;2.90;;;;;;;;;;2098372;28;20047;-44
2022/04/27 04:57:42;;;;;;;3.78;2.47;;;;;;;;;;2098128;28;20040;-44
2022/04/27 04:58:43;;;;;;;3.88;2.55;;;;;;;;;;2098462;28;20182;-44
2022/04/27 04:59:44;;;;;;;4.72;3.00;;;;;;;;;;2098466;28;20048;-44
2022/04/27 05:00:48;;;;;;;3.87;2.50;;;;;;;;;;2098629;28;20131;-44
2022/04/27 05:01:49;;;;;;;3.80;2.65;;;;;;;;;;2098202;28;20051;-44
2022/04/27 05:02:50;;;;;;;3.28;2.28;;;;;;;;;;2098288;28;20043;-45
2022/04/27 05:03:51;;;;;;;3.63;2.42;;;;;;;;;;2097946;28;20051;-44
2022/04/27 05:04:52;;;;;;;4.85;2.28;;;;;;;;;;2098030;28;20631;-44
2022/04/27 05:05:54;;;;;;;3.73;2.53;;;;;;;;;;2098142;28;20105;-44
2022/04/27 05:06:55;;;;;;;3.70;2.53;;;;;;;;;;2098168;28;20127;-60
2022/04/27 05:07:57;;;;;;;3.73;2.37;;;;;;;;;;2098192;28;20158;-60
2022/04/27 05:08:57;;;;;;;4.65;2.35;;;;;;;;;;2097992;28;20180;-60
2022/04/27 05:09:59;;;;;;;3.58;2.33;;;;;;;;;;2098195;28;20122;-60
2022/04/27 05:11:00;;;;;;;2.88;2.10;;;;;;;;;;2098258;28;20157;-60
2022/04/27 05:12:01;;;;;;;2.78;1.80;;;;;;;;;;2106449;28;20401;-61
2022/04/27 05:13:03;;;;;;;3.50;2.42;;;;;;;;;;2106616;28;20110;-60
2022/04/27 05:14:04;;;;;;;5.28;2.50;;;;;;;;;;2106369;28;20139;-60
2022/04/27 05:15:06;;;;;;;2.60;2.05;;;;;;;;;;2106508;28;20047;-60
2022/04/27 05:16:07;;;;;;;3.88;2.20;;;;;;;;;;2106408;28;20127;-60
2022/04/27 05:17:08;;;;;;;3.63;2.05;;;;;;;;;;2106465;28;20044;-60
2022/04/27 05:18:09;;;;;;;5.40;2.27;;;;;;;;;;2106599;28;20044;-60
2022/04/27 05:19:10;;;;;;;3.90;2.20;;;;;;;;;;2099015;28;20409;-60
2022/04/27 05:20:11;;;;;;;3.35;2.10;;;;;;;;;;2098061;28;20041;-61
2022/04/27 05:21:12;;;;;;;4.00;2.53;;;;;;;;;;2098148;28;20055;-61
2022/04/27 05:22:14;;;;;;;3.93;2.13;;;;;;;;;;2097999;28;20052;-60
2022/04/27 05:23:16;;;;;;;2.47;1.75;;;;;;;;;;2098027;28;20048;-61
2022/04/27 05:24:16;;;;;;;;;;;;;;;;;;2097625;28;20056;-62
2022/04/27 05:25:18;;;;;;;2.60;2.05;;;;;;;;;;2097576;28;19997;-63
2022/04/27 05:26:23;;;;;;;3.28;2.30;;;;;;;;;;2098070;28;20048;-61
2022/04/27 05:27:24;;;;;;;3.75;2.30;;;;;;;;;;2098000;28;20060;-62
2022/04/27 05:31:53;;;;;;;5.20;2.05;;;;;;;;;;2098012;28;20059;-61
2022/04/27 05:32:27;;;;;;;4.03;2.00;;;;;;;;;;2098029;28;20049;-61
2022/04/27 05:33:28;;;;;;;4.35;2.00;;;;;;;;;;2097763;28;20473;-61
2022/04/27 05:34:30;;;;;;;3.08;2.00;;;;;;;;;;2098030;28;20051;-61
2022/04/27 05:35:31;;;;;;;;;;;;;;;;;;2098408;28;20406;-61
2022/04/27 05:36:32;;;;;;;3.35;2.10;;;;;;;;;;2097847;28;19920;-61
2022/04/27 05:37:33;;;;;;;3.88;2.10;;;;;;;;;;2098039;28;20072;-61
2022/04/27 05:38:35;;;;;;;5.80;2.40;;;;;;;;;;2097796;28;20512;-61
2022/04/27 05:39:35;;;;;;;2.65;1.70;;;;;;;;;;2098029;28;20501;-61
2022/04/27 05:40:37;;;;;;;3.27;1.77;;;;;;;;;;2098112;28;20113;-45
2022/04/27 05:41:38;;;;;;;3.08;2.17;;;;;;;;;;2097991;28;20040;-45
2022/04/27 05:42:40;;;;;;;2.58;1.98;;;;;;;;;;2097930;28;20060;-44
2022/04/27 05:43:41;;;;;;;2.60;2.00;;;;;;;;;;2097990;28;20048;-45
2022/04/27 05:44:42;;;;;;;2.63;1.87;;;;;;;;;;2097961;28;20497;-45
2022/04/27 05:45:45;;;;;;;4.05;2.10;;;;;;;;;;2097900;28;20181;-45
2022/04/27 05:46:46;;;;;;;3.15;2.10;;;;;;;;;;2097936;28;20048;-45
2022/04/27 05:47:47;;;;;;;3.28;1.73;;;;;;;;;;2097761;28;20048;-45
2022/04/27 05:48:49;;;;;;;3.00;1.80;;;;;;;;;;2097822;28;20482;-45
2022/04/27 05:49:50;;;;;;;;;;;;;;;;;;2098184;28;20383;-45
2022/04/27 05:50:51;;;;;;;3.10;1.80;;;;;;;;;;2098158;28;19948;-63
2022/04/27 05:51:52;;;;;;;4.45;2.58;;;;;;;;;;2097844;28;20040;-62
2022/04/27 05:52:56;;;;;;;3.17;2.10;;;;;;;;;;2098062;28;20045;-61
2022/04/27 05:53:57;;;;;;;2.90;1.90;;;;;;;;;;2097742;28;20056;-62
2022/04/27 05:54:59;;;;;;;2.70;1.90;;;;;;;;;;2097828;28;20139;-62
2022/04/27 05:56:00;;;;;;;3.10;1.88;;;;;;;;;;2097878;28;20131;-62
2022/04/27 05:57:03;;;;;;;3.30;2.07;;;;;;;;;;2098040;28;20453;-62
2022/04/27 05:58:04;;;;;;;4.15;1.98;;;;;;;;;;2097930;28;20360;-62
2022/04/27 05:59:05;;;;;;;3.30;1.98;;;;;;;;;;2097873;28;20052;-62
2022/04/27 06:00:07;;;;;;;2.33;1.70;;;;;;;;;;2097724;28;20135;-62
2022/04/27 06:01:08;;;;;;;3.40;2.20;;;;;;;;;;2097851;28;20212;-62
2022/04/27 06:02:09;;;;;;;4.07;2.00;;;;;;;;;;2097969;28;20580;-62
2022/04/27 06:03:10;;;;;;;3.38;1.90;;;;;;;;;;2097757;28;20041;-62
2022/04/27 06:04:11;;;;;;;3.35;1.90;;;;;;;;;;2097770;28;20486;-62
2022/04/27 06:05:13;;;;;;;3.60;2.35;;;;;;;;;;2097862;28;20106;-63
2022/04/27 06:06:14;;;;;;;4.53;1.88;;;;;;;;;;2097769;28;20413;-61
2022/04/27 06:07:15;;;;;;;3.93;1.97;;;;;;;;;;2097873;28;20135;-62
2022/04/27 06:08:17;;;;;;;2.78;1.83;;;;;;;;;;2106451;28;20300;-46
2022/04/27 06:09:17;;;;;;;3.75;2.17;;;;;;;;;;2105976;28;20044;-46
2022/04/27 06:10:19;;;;;;;3.53;1.90;;;;;;;;;;2106060;28;20055;-46
2022/04/27 06:11:20;;;;;;;2.58;1.55;;;;;;;;;;2106194;28;20127;-46
2022/04/27 06:12:23;;;;;;;4.10;2.10;;;;;;;;;;2106098;28;20051;-46
2022/04/27 06:13:26;;;;;;;2.58;1.70;;;;;;;;;;2106181;28;20364;-45
2022/04/27 06:14:30;;;;;;;3.90;2.05;;;;;;;;;;2106066;28;20481;-46
2022/04/27 06:15:31;;;;;;;3.25;1.85;;;;;;;;;;2106243;28;20054;-45
2022/04/27 06:16:34;;;;;;;3.15;2.13;;;;;;;;;;2106127;28;20080;-46
2022/04/27 06:17:35;;;;;;;4.72;1.70;;;;;;;;;;2105990;28;20580;-46
2022/04/27 06:18:39;;;;;;;2.57;1.80;;;;;;;;;;2103446;28;20260;-46
2022/04/27 06:19:40;;;;;;;3.72;2.00;;;;;;;;;;2097853;28;20123;-46
2022/04/27 06:20:41;;;;;;;2.65;1.90;;;;;;;;;;2097728;28;20056;-46
2022/04/27 06:21:48;;;;;;;2.67;1.73;;;;;;;;;;2097912;28;20448;-46
2022/04/27 06:22:49;;;;;;;5.03;2.47;;;;;;;;;;2097665;28;20404;-45
2022/04/27 06:23:50;;;;;;;3.30;2.17;;;;;;;;;;2097601;28;20040;-46
2022/04/27 06:24:51;;;;;;;3.70;1.73;;;;;;;;;;2097796;28;20123;-46